Tabarka, Tunisia
Current Conditions -  °F | °C
As of 7:00 AM on Sunday 26 Oct 2014 (Local Time) from DTKA Reporting Station
Scattered Clouds Scattered Clouds  
Wind Chill: 66°   Ceiling: Unl
Heat Index: 66°   Visibility: 5mi
Dew Point: 61°   Wind: 12mph
Humidity: 83%   Direction: 220°SW
Pressure: 30.09"   Gusts: NA
Location:  36.96°N, 8.75°E
Report Text: DTKA 260600Z 22010KT 8000 SCT020 SCT030 19/16 Q1019 NOSIG
Loading
Personal Weather Stations






























Interactive Weather Map
Tropical Storm Tracking
New forecast layout! Learn more

10-Day Weather Forecast

Advertisements
Track Severe Weather on mobile